sensor_id;sensor_type;location;lat;lon;timestamp;temperature;humidity
38582;DHT22;24349;53.720;10.014;2022-12-07T00:00:01;3.20;99.90
38582;DHT22;24349;53.720;10.014;2022-12-07T00:02:27;3.20;99.90
38582;DHT22;24349;53.720;10.014;2022-12-07T00:04:52;3.30;99.90
38582;DHT22;24349;53.720;10.014;2022-12-07T00:07:18;3.30;99.90
38582;DHT22;24349;53.720;10.014;2022-12-07T00:09:43;3.40;99.90
38582;DHT22;24349;53.720;10.014;2022-12-07T00:12:09;3.40;99.90
38582;DHT22;24349;53.720;10.014;2022-12-07T00:14:34;3.50;99.90
38582;DHT22;24349;53.720;10.014;2022-12-07T00:17:00;3.50;99.90
38582;DHT22;24349;53.720;10.014;2022-12-07T00:19:26;3.50;99.90
38582;DHT22;24349;53.720;10.014;2022-12-07T00:21:51;3.60;99.90
38582;DHT22;24349;53.720;10.014;2022-12-07T00:24:17;3.50;99.90
38582;DHT22;24349;53.720;10.014;2022-12-07T00:26:43;3.60;99.90
38582;DHT22;24349;53.720;10.014;2022-12-07T00:29:12;3.70;99.90
38582;DHT22;24349;53.720;10.014;2022-12-07T00:31:38;3.70;99.90
38582;DHT22;24349;53.720;10.014;2022-12-07T00:34:04;3.70;99.90
38582;DHT22;24349;53.720;10.014;2022-12-07T00:36:30;3.60;99.90
38582;DHT22;24349;53.720;10.014;2022-12-07T00:38:57;3.50;99.90
38582;DHT22;24349;53.720;10.014;2022-12-07T00:41:23;3.50;99.90
38582;DHT22;24349;53.720;10.014;2022-12-07T00:43:49;3.50;99.90
38582;DHT22;24349;53.720;10.014;2022-12-07T00:46:15;3.50;99.90
38582;DHT22;24349;53.720;10.014;2022-12-07T00:48:41;3.50;99.90
38582;DHT22;24349;53.720;10.014;2022-12-07T00:51:06;3.50;99.90
38582;DHT22;24349;53.720;10.014;2022-12-07T00:53:36;3.50;99.90
38582;DHT22;24349;53.720;10.014;2022-12-07T00:58:42;3.50;99.90
38582;DHT22;24349;53.720;10.014;2022-12-07T01:01:08;3.40;99.90
38582;DHT22;24349;53.720;10.014;2022-12-07T01:03:34;3.40;99.90
38582;DHT22;24349;53.720;10.014;2022-12-07T01:05:59;3.40;99.90
38582;DHT22;24349;53.720;10.014;2022-12-07T01:08:26;3.30;99.90
38582;DHT22;24349;53.720;10.014;2022-12-07T01:11:05;3.40;99.90
38582;DHT22;24349;53.720;10.014;2022-12-07T01:13:32;3.40;99.90
38582;DHT22;24349;53.720;10.014;2022-12-07T01:15:58;3.40;99.90
38582;DHT22;24349;53.720;10.014;2022-12-07T01:18:25;3.40;99.90
38582;DHT22;24349;53.720;10.014;2022-12-07T01:21:01;3.40;99.90
38582;DHT22;24349;53.720;10.014;2022-12-07T01:23:27;3.30;99.90
38582;DHT22;24349;53.720;10.014;2022-12-07T01:25:56;3.40;99.90
38582;DHT22;24349;53.720;10.014;2022-12-07T01:28:22;3.40;99.90
38582;DHT22;24349;53.720;10.014;2022-12-07T01:30:57;3.30;99.90
38582;DHT22;24349;53.720;10.014;2022-12-07T01:33:23;3.30;99.90
38582;DHT22;24349;53.720;10.014;2022-12-07T01:35:49;3.20;99.90
38582;DHT22;24349;53.720;10.014;2022-12-07T01:38:14;3.20;99.90
38582;DHT22;24349;53.720;10.014;2022-12-07T01:40:40;3.20;99.90
38582;DHT22;24349;53.720;10.014;2022-12-07T01:43:13;3.20;99.90
38582;DHT22;24349;53.720;10.014;2022-12-07T01:45:40;3.10;99.90
38582;DHT22;24349;53.720;10.014;2022-12-07T01:48:06;3.20;99.90
38582;DHT22;24349;53.720;10.014;2022-12-07T01:50:33;3.20;99.90
38582;DHT22;24349;53.720;10.014;2022-12-07T01:52:59;3.10;99.90
38582;DHT22;24349;53.720;10.014;2022-12-07T01:55:27;3.20;99.90
38582;DHT22;24349;53.720;10.014;2022-12-07T01:57:53;3.20;99.90
38582;DHT22;24349;53.720;10.014;2022-12-07T02:00:19;3.20;99.90
38582;DHT22;24349;53.720;10.014;2022-12-07T02:02:50;3.10;99.90
38582;DHT22;24349;53.720;10.014;2022-12-07T02:05:17;3.10;99.90
38582;DHT22;24349;53.720;10.014;2022-12-07T02:07:43;3.10;99.90
38582;DHT22;24349;53.720;10.014;2022-12-07T02:12:37;3.20;99.90
38582;DHT22;24349;53.720;10.014;2022-12-07T02:15:03;3.20;99.90
38582;DHT22;24349;53.720;10.014;2022-12-07T02:17:32;3.30;99.90
38582;DHT22;24349;53.720;10.014;2022-12-07T02:20:16;3.30;99.90
38582;DHT22;24349;53.720;10.014;2022-12-07T02:28:04;3.20;99.90
38582;DHT22;24349;53.720;10.014;2022-12-07T02:30:32;3.20;99.90
38582;DHT22;24349;53.720;10.014;2022-12-07T02:32:59;3.10;99.90
38582;DHT22;24349;53.720;10.014;2022-12-07T02:40:38;3.20;99.90
38582;DHT22;24349;53.720;10.014;2022-12-07T02:43:16;3.10;99.90
38582;DHT22;24349;53.720;10.014;2022-12-07T02:45:43;3.10;99.90
38582;DHT22;24349;53.720;10.014;2022-12-07T02:48:09;3.00;99.90
38582;DHT22;24349;53.720;10.014;2022-12-07T02:50:36;2.90;99.90
38582;DHT22;24349;53.720;10.014;2022-12-07T02:53:02;2.90;99.90
38582;DHT22;24349;53.720;10.014;2022-12-07T02:55:29;2.80;99.90
38582;DHT22;24349;53.720;10.014;2022-12-07T03:00:24;2.70;99.90
38582;DHT22;24349;53.720;10.014;2022-12-07T03:02:51;2.70;99.90
38582;DHT22;24349;53.720;10.014;2022-12-07T03:10:31;2.60;99.90
38582;DHT22;24349;53.720;10.014;2022-12-07T03:13:03;2.50;99.90
38582;DHT22;24349;53.720;10.014;2022-12-07T03:18:15;2.50;99.90
38582;DHT22;24349;53.720;10.014;2022-12-07T03:20:42;2.50;99.90
38582;DHT22;24349;53.720;10.014;2022-12-07T03:23:07;2.50;99.90
38582;DHT22;24349;53.720;10.014;2022-12-07T03:25:35;2.40;99.90
38582;DHT22;24349;53.720;10.014;2022-12-07T03:28:04;2.40;99.90
38582;DHT22;24349;53.720;10.014;2022-12-07T03:30:33;2.40;99.90
38582;DHT22;24349;53.720;10.014;2022-12-07T03:35:34;2.30;99.90
38582;DHT22;24349;53.720;10.014;2022-12-07T03:38:02;2.30;99.90
38582;DHT22;24349;53.720;10.014;2022-12-07T03:40:33;2.30;99.90
38582;DHT22;24349;53.720;10.014;2022-12-07T03:43:00;2.20;99.90
38582;DHT22;24349;53.720;10.014;2022-12-07T03:45:37;2.20;99.90
38582;DHT22;24349;53.720;10.014;2022-12-07T03:48:07;2.30;99.90
38582;DHT22;24349;53.720;10.014;2022-12-07T03:50:50;2.30;99.90
38582;DHT22;24349;53.720;10.014;2022-12-07T03:53:18;2.20;99.90
38582;DHT22;24349;53.720;10.014;2022-12-07T03:55:45;2.20;99.90
38582;DHT22;24349;53.720;10.014;2022-12-07T03:58:12;2.20;99.90
38582;DHT22;24349;53.720;10.014;2022-12-07T04:00:40;2.10;99.90
38582;DHT22;24349;53.720;10.014;2022-12-07T04:03:05;2.10;99.90
38582;DHT22;24349;53.720;10.014;2022-12-07T04:05:31;2.10;99.90
38582;DHT22;24349;53.720;10.014;2022-12-07T04:07:57;2.00;99.90
38582;DHT22;24349;53.720;10.014;2022-12-07T04:10:22;2.00;99.90
38582;DHT22;24349;53.720;10.014;2022-12-07T04:12:48;2.00;99.90
38582;DHT22;24349;53.720;10.014;2022-12-07T04:15:13;2.00;99.90
38582;DHT22;24349;53.720;10.014;2022-12-07T04:17:39;2.00;99.90
38582;DHT22;24349;53.720;10.014;2022-12-07T04:20:04;2.10;99.90
38582;DHT22;24349;53.720;10.014;2022-12-07T04:22:30;2.00;99.90
38582;DHT22;24349;53.720;10.014;2022-12-07T04:24:56;1.90;99.90
38582;DHT22;24349;53.720;10.014;2022-12-07T04:27:22;1.90;99.90
38582;DHT22;24349;53.720;10.014;2022-12-07T04:29:47;1.90;99.90
38582;DHT22;24349;53.720;10.014;2022-12-07T04:32:13;1.90;99.90
38582;DHT22;24349;53.720;10.014;2022-12-07T04:34:38;1.90;99.90
38582;DHT22;24349;53.720;10.014;2022-12-07T04:37:04;1.80;99.90
38582;DHT22;24349;53.720;10.014;2022-12-07T04:39:30;1.90;99.90
38582;DHT22;24349;53.720;10.014;2022-12-07T04:41:56;1.80;99.90
38582;DHT22;24349;53.720;10.014;2022-12-07T04:44:22;1.80;99.90
38582;DHT22;24349;53.720;10.014;2022-12-07T04:46:48;1.80;99.90
38582;DHT22;24349;53.720;10.014;2022-12-07T04:49:15;1.80;99.90
38582;DHT22;24349;53.720;10.014;2022-12-07T04:51:40;1.80;99.90
38582;DHT22;24349;53.720;10.014;2022-12-07T04:54:06;1.80;99.90
38582;DHT22;24349;53.720;10.014;2022-12-07T04:56:32;1.70;99.90
38582;DHT22;24349;53.720;10.014;2022-12-07T04:58:57;1.70;99.90
38582;DHT22;24349;53.720;10.014;2022-12-07T05:01:23;1.70;99.90
38582;DHT22;24349;53.720;10.014;2022-12-07T05:03:48;1.70;99.90
38582;DHT22;24349;53.720;10.014;2022-12-07T05:06:14;1.70;99.90
38582;DHT22;24349;53.720;10.014;2022-12-07T05:08:40;1.70;99.90
38582;DHT22;24349;53.720;10.014;2022-12-07T05:11:06;1.70;99.90
38582;DHT22;24349;53.720;10.014;2022-12-07T05:13:32;1.70;99.90
38582;DHT22;24349;53.720;10.014;2022-12-07T05:15:57;1.70;99.90
38582;DHT22;24349;53.720;10.014;2022-12-07T05:18:23;1.70;99.90
38582;DHT22;24349;53.720;10.014;2022-12-07T05:20:49;1.70;99.90
38582;DHT22;24349;53.720;10.014;2022-12-07T05:23:16;1.70;99.90
38582;DHT22;24349;53.720;10.014;2022-12-07T05:25:41;1.70;99.90
38582;DHT22;24349;53.720;10.014;2022-12-07T05:28:07;1.70;99.90
38582;DHT22;24349;53.720;10.014;2022-12-07T05:30:32;1.70;99.90
38582;DHT22;24349;53.720;10.014;2022-12-07T05:32:58;1.80;99.90
38582;DHT22;24349;53.720;10.014;2022-12-07T05:35:23;1.70;99.90
38582;DHT22;24349;53.720;10.014;2022-12-07T05:37:49;1.70;99.90
38582;DHT22;24349;53.720;10.014;2022-12-07T05:40:15;1.80;99.90
38582;DHT22;24349;53.720;10.014;2022-12-07T05:42:41;1.70;99.90
38582;DHT22;24349;53.720;10.014;2022-12-07T05:45:07;1.80;99.90
38582;DHT22;24349;53.720;10.014;2022-12-07T05:47:33;1.70;99.90
38582;DHT22;24349;53.720;10.014;2022-12-07T05:49:58;1.70;99.90
38582;DHT22;24349;53.720;10.014;2022-12-07T05:52:24;1.70;99.90
38582;DHT22;24349;53.720;10.014;2022-12-07T05:54:49;1.70;99.90
38582;DHT22;24349;53.720;10.014;2022-12-07T05:57:15;1.70;99.90
38582;DHT22;24349;53.720;10.014;2022-12-07T05:59:40;1.60;99.90
38582;DHT22;24349;53.720;10.014;2022-12-07T06:02:07;1.60;99.90
38582;DHT22;24349;53.720;10.014;2022-12-07T06:04:34;1.60;99.90
38582;DHT22;24349;53.720;10.014;2022-12-07T06:07:00;1.60;99.90
38582;DHT22;24349;53.720;10.014;2022-12-07T06:09:26;1.60;99.90
38582;DHT22;24349;53.720;10.014;2022-12-07T06:11:51;1.50;99.90
38582;DHT22;24349;53.720;10.014;2022-12-07T06:14:49;1.50;99.90
38582;DHT22;24349;53.720;10.014;2022-12-07T06:17:15;1.50;99.90
38582;DHT22;24349;53.720;10.014;2022-12-07T06:19:41;1.50;99.90
38582;DHT22;24349;53.720;10.014;2022-12-07T06:22:06;1.50;99.90
38582;DHT22;24349;53.720;10.014;2022-12-07T06:24:33;1.50;99.90
38582;DHT22;24349;53.720;10.014;2022-12-07T06:26:58;1.60;99.90
38582;DHT22;24349;53.720;10.014;2022-12-07T06:29:24;1.50;99.90
38582;DHT22;24349;53.720;10.014;2022-12-07T06:31:50;1.60;99.90
38582;DHT22;24349;53.720;10.014;2022-12-07T06:34:21;1.60;99.90
38582;DHT22;24349;53.720;10.014;2022-12-07T06:36:54;1.60;99.90
38582;DHT22;24349;53.720;10.014;2022-12-07T06:39:21;1.60;99.90
38582;DHT22;24349;53.720;10.014;2022-12-07T06:41:47;1.60;99.90
38582;DHT22;24349;53.720;10.014;2022-12-07T06:44:13;1.70;99.90
38582;DHT22;24349;53.720;10.014;2022-12-07T06:46:38;1.70;99.90
38582;DHT22;24349;53.720;10.014;2022-12-07T06:49:04;1.70;99.90
38582;DHT22;24349;53.720;10.014;2022-12-07T06:51:30;1.70;99.90
38582;DHT22;24349;53.720;10.014;2022-12-07T06:53:56;1.70;99.90
38582;DHT22;24349;53.720;10.014;2022-12-07T06:56:21;1.70;99.90
38582;DHT22;24349;53.720;10.014;2022-12-07T06:58:48;1.70;99.90
38582;DHT22;24349;53.720;10.014;2022-12-07T07:01:14;1.70;99.90
38582;DHT22;24349;53.720;10.014;2022-12-07T07:03:40;1.70;99.90
38582;DHT22;24349;53.720;10.014;2022-12-07T07:06:06;1.70;99.90
38582;DHT22;24349;53.720;10.014;2022-12-07T07:08:33;1.80;99.90
38582;DHT22;24349;53.720;10.014;2022-12-07T07:10:58;1.80;99.90
38582;DHT22;24349;53.720;10.014;2022-12-07T07:13:24;1.80;99.90
38582;DHT22;24349;53.720;10.014;2022-12-07T07:15:49;1.80;99.90
38582;DHT22;24349;53.720;10.014;2022-12-07T07:18:15;1.90;99.90
38582;DHT22;24349;53.720;10.014;2022-12-07T07:20:41;1.90;99.90
38582;DHT22;24349;53.720;10.014;2022-12-07T07:23:06;1.90;99.90
38582;DHT22;24349;53.720;10.014;2022-12-07T07:25:32;1.90;99.90
38582;DHT22;24349;53.720;10.014;2022-12-07T07:27:58;1.90;99.90
38582;DHT22;24349;53.720;10.014;2022-12-07T07:30:23;2.00;99.90
38582;DHT22;24349;53.720;10.014;2022-12-07T07:32:49;2.00;99.90
38582;DHT22;24349;53.720;10.014;2022-12-07T07:35:15;2.00;99.90
38582;DHT22;24349;53.720;10.014;2022-12-07T07:37:40;2.00;99.90
38582;DHT22;24349;53.720;10.014;2022-12-07T07:40:07;2.10;99.90
38582;DHT22;24349;53.720;10.014;2022-12-07T07:42:32;2.10;99.90
38582;DHT22;24349;53.720;10.014;2022-12-07T07:44:58;2.10;99.90
38582;DHT22;24349;53.720;10.014;2022-12-07T07:47:23;2.20;99.90
38582;DHT22;24349;53.720;10.014;2022-12-07T07:49:49;2.20;99.90
38582;DHT22;24349;53.720;10.014;2022-12-07T07:52:15;2.30;99.90
38582;DHT22;24349;53.720;10.014;2022-12-07T07:54:40;2.30;99.90
38582;DHT22;24349;53.720;10.014;2022-12-07T07:57:06;2.20;99.90
38582;DHT22;24349;53.720;10.014;2022-12-07T07:59:31;2.30;99.90
38582;DHT22;24349;53.720;10.014;2022-12-07T08:01:57;2.20;99.90
38582;DHT22;24349;53.720;10.014;2022-12-07T08:04:22;2.20;99.90
38582;DHT22;24349;53.720;10.014;2022-12-07T08:06:48;2.20;99.90
38582;DHT22;24349;53.720;10.014;2022-12-07T08:09:13;2.30;99.90
38582;DHT22;24349;53.720;10.014;2022-12-07T08:11:39;2.30;99.90
38582;DHT22;24349;53.720;10.014;2022-12-07T08:14:04;2.30;99.90
38582;DHT22;24349;53.720;10.014;2022-12-07T08:16:30;2.40;99.90
38582;DHT22;24349;53.720;10.014;2022-12-07T08:18:55;2.40;99.90
38582;DHT22;24349;53.720;10.014;2022-12-07T08:21:21;2.40;99.90
38582;DHT22;24349;53.720;10.014;2022-12-07T08:23:47;2.40;99.90
38582;DHT22;24349;53.720;10.014;2022-12-07T08:26:13;2.40;99.90
38582;DHT22;24349;53.720;10.014;2022-12-07T08:28:39;2.50;99.90
38582;DHT22;24349;53.720;10.014;2022-12-07T08:31:10;2.50;99.90
38582;DHT22;24349;53.720;10.014;2022-12-07T08:33:36;2.50;99.90
38582;DHT22;24349;53.720;10.014;2022-12-07T08:36:02;2.60;99.90
38582;DHT22;24349;53.720;10.014;2022-12-07T08:38:28;2.60;99.90
38582;DHT22;24349;53.720;10.014;2022-12-07T08:40:54;2.60;99.90
38582;DHT22;24349;53.720;10.014;2022-12-07T08:43:20;2.50;99.90
38582;DHT22;24349;53.720;10.014;2022-12-07T08:45:46;2.50;99.90
38582;DHT22;24349;53.720;10.014;2022-12-07T08:48:13;2.50;99.90
38582;DHT22;24349;53.720;10.014;2022-12-07T08:50:38;2.50;99.90
38582;DHT22;24349;53.720;10.014;2022-12-07T08:53:04;2.50;99.90
38582;DHT22;24349;53.720;10.014;2022-12-07T08:55:31;2.60;99.90
38582;DHT22;24349;53.720;10.014;2022-12-07T08:57:57;2.70;99.90
38582;DHT22;24349;53.720;10.014;2022-12-07T09:00:23;2.70;99.90
38582;DHT22;24349;53.720;10.014;2022-12-07T09:02:49;2.70;99.90
38582;DHT22;24349;53.720;10.014;2022-12-07T09:05:14;2.80;99.90
38582;DHT22;24349;53.720;10.014;2022-12-07T09:07:40;2.80;99.90
38582;DHT22;24349;53.720;10.014;2022-12-07T09:10:06;2.90;99.90
38582;DHT22;24349;53.720;10.014;2022-12-07T09:12:32;2.90;99.90
38582;DHT22;24349;53.720;10.014;2022-12-07T09:14:57;3.00;99.90
38582;DHT22;24349;53.720;10.014;2022-12-07T09:17:23;2.90;99.90
38582;DHT22;24349;53.720;10.014;2022-12-07T09:19:48;3.00;99.90
38582;DHT22;24349;53.720;10.014;2022-12-07T09:22:14;3.00;99.90
38582;DHT22;24349;53.720;10.014;2022-12-07T09:24:39;3.10;99.90
38582;DHT22;24349;53.720;10.014;2022-12-07T09:27:05;3.10;99.90
38582;DHT22;24349;53.720;10.014;2022-12-07T09:29:30;3.20;99.90
38582;DHT22;24349;53.720;10.014;2022-12-07T09:31:56;3.20;99.90
38582;DHT22;24349;53.720;10.014;2022-12-07T09:34:21;3.30;99.90
38582;DHT22;24349;53.720;10.014;2022-12-07T09:36:47;3.30;99.90
38582;DHT22;24349;53.720;10.014;2022-12-07T09:39:12;3.30;99.90
38582;DHT22;24349;53.720;10.014;2022-12-07T09:41:38;3.40;99.90
38582;DHT22;24349;53.720;10.014;2022-12-07T09:44:05;3.40;99.90
38582;DHT22;24349;53.720;10.014;2022-12-07T09:46:35;3.30;99.90
38582;DHT22;24349;53.720;10.014;2022-12-07T09:49:02;3.30;99.90
38582;DHT22;24349;53.720;10.014;2022-12-07T09:51:27;3.30;99.90
38582;DHT22;24349;53.720;10.014;2022-12-07T09:53:54;3.40;99.90
38582;DHT22;24349;53.720;10.014;2022-12-07T09:56:21;3.50;99.90
38582;DHT22;24349;53.720;10.014;2022-12-07T09:58:47;3.70;99.90
38582;DHT22;24349;53.720;10.014;2022-12-07T10:01:14;3.70;99.90
38582;DHT22;24349;53.720;10.014;2022-12-07T10:03:46;3.70;99.90
38582;DHT22;24349;53.720;10.014;2022-12-07T10:06:14;3.90;99.90
38582;DHT22;24349;53.720;10.014;2022-12-07T10:08:39;3.70;99.90
38582;DHT22;24349;53.720;10.014;2022-12-07T10:11:06;4.00;99.90
38582;DHT22;24349;53.720;10.014;2022-12-07T10:16:56;4.20;99.90
38582;DHT22;24349;53.720;10.014;2022-12-07T10:21:49;4.10;99.90
38582;DHT22;24349;53.720;10.014;2022-12-07T10:24:23;4.00;99.90
38582;DHT22;24349;53.720;10.014;2022-12-07T10:26:52;4.10;99.90
38582;DHT22;24349;53.720;10.014;2022-12-07T10:32:03;4.40;99.90
38582;DHT22;24349;53.720;10.014;2022-12-07T10:37:06;4.40;99.90
38582;DHT22;24349;53.720;10.014;2022-12-07T10:39:39;4.50;99.90
38582;DHT22;24349;53.720;10.014;2022-12-07T10:42:08;4.50;99.90
38582;DHT22;24349;53.720;10.014;2022-12-07T10:44:38;4.60;99.90
38582;DHT22;24349;53.720;10.014;2022-12-07T10:57:32;4.70;99.90
38582;DHT22;24349;53.720;10.014;2022-12-07T11:02:35;4.80;99.90
38582;DHT22;24349;53.720;10.014;2022-12-07T11:08:00;5.00;99.90
38582;DHT22;24349;53.720;10.014;2022-12-07T11:10:45;5.20;99.90
38582;DHT22;24349;53.720;10.014;2022-12-07T11:13:34;5.20;99.90
38582;DHT22;24349;53.720;10.014;2022-12-07T11:21:30;5.00;99.90
38582;DHT22;24349;53.720;10.014;2022-12-07T11:24:16;5.20;99.90
38582;DHT22;24349;53.720;10.014;2022-12-07T11:29:48;5.30;99.90
38582;DHT22;24349;53.720;10.014;2022-12-07T11:37:34;5.30;99.90
38582;DHT22;24349;53.720;10.014;2022-12-07T11:40:04;5.40;99.90
38582;DHT22;24349;53.720;10.014;2022-12-07T11:42:33;5.30;99.90
38582;DHT22;24349;53.720;10.014;2022-12-07T11:45:10;5.40;99.90
38582;DHT22;24349;53.720;10.014;2022-12-07T11:50:40;5.40;99.90
38582;DHT22;24349;53.720;10.014;2022-12-07T11:58:14;5.80;99.90
38582;DHT22;24349;53.720;10.014;2022-12-07T12:00:43;5.80;99.90
38582;DHT22;24349;53.720;10.014;2022-12-07T12:03:11;6.20;99.90
38582;DHT22;24349;53.720;10.014;2022-12-07T12:05:38;6.20;99.90
38582;DHT22;24349;53.720;10.014;2022-12-07T12:08:38;6.50;99.90
38582;DHT22;24349;53.720;10.014;2022-12-07T12:16:19;6.40;99.90
38582;DHT22;24349;53.720;10.014;2022-12-07T12:18:50;6.10;99.90
38582;DHT22;24349;53.720;10.014;2022-12-07T12:21:22;6.10;99.90
38582;DHT22;24349;53.720;10.014;2022-12-07T12:23:54;6.20;99.90
38582;DHT22;24349;53.720;10.014;2022-12-07T12:26:22;6.10;99.90
38582;DHT22;24349;53.720;10.014;2022-12-07T12:33:42;6.20;99.90
38582;DHT22;24349;53.720;10.014;2022-12-07T12:43:59;6.60;99.90
38582;DHT22;24349;53.720;10.014;2022-12-07T12:54:31;5.80;99.90
38582;DHT22;24349;53.720;10.014;2022-12-07T12:57:09;5.70;99.90
38582;DHT22;24349;53.720;10.014;2022-12-07T12:59:38;5.50;99.90
38582;DHT22;24349;53.720;10.014;2022-12-07T13:04:50;5.40;99.90
38582;DHT22;24349;53.720;10.014;2022-12-07T13:10:00;5.20;99.90
38582;DHT22;24349;53.720;10.014;2022-12-07T13:12:26;5.30;99.90
38582;DHT22;24349;53.720;10.014;2022-12-07T13:14:53;5.40;99.90
38582;DHT22;24349;53.720;10.014;2022-12-07T13:20:00;5.30;99.90
38582;DHT22;24349;53.720;10.014;2022-12-07T13:27:39;5.30;99.90
38582;DHT22;24349;53.720;10.014;2022-12-07T13:30:13;5.10;99.90
38582;DHT22;24349;53.720;10.014;2022-12-07T13:32:39;5.10;99.90
38582;DHT22;24349;53.720;10.014;2022-12-07T13:37:49;4.90;99.90
38582;DHT22;24349;53.720;10.014;2022-12-07T13:40:17;4.80;99.90
38582;DHT22;24349;53.720;10.014;2022-12-07T13:42:43;4.80;99.90
38582;DHT22;24349;53.720;10.014;2022-12-07T13:48:36;4.60;99.90
38582;DHT22;24349;53.720;10.014;2022-12-07T13:51:16;4.60;99.90
38582;DHT22;24349;53.720;10.014;2022-12-07T13:53:48;4.60;99.90
38582;DHT22;24349;53.720;10.014;2022-12-07T13:56:14;4.50;99.90
38582;DHT22;24349;53.720;10.014;2022-12-07T13:58:41;4.50;99.90
38582;DHT22;24349;53.720;10.014;2022-12-07T14:01:06;4.30;99.90
38582;DHT22;24349;53.720;10.014;2022-12-07T14:03:33;4.30;99.90
38582;DHT22;24349;53.720;10.014;2022-12-07T14:08:30;4.30;99.90
38582;DHT22;24349;53.720;10.014;2022-12-07T14:10:56;4.20;99.90
38582;DHT22;24349;53.720;10.014;2022-12-07T14:15:51;4.10;99.90
38582;DHT22;24349;53.720;10.014;2022-12-07T14:18:30;4.00;99.90
38582;DHT22;24349;53.720;10.014;2022-12-07T14:21:05;4.00;99.90
38582;DHT22;24349;53.720;10.014;2022-12-07T14:23:31;3.90;99.90
38582;DHT22;24349;53.720;10.014;2022-12-07T14:26:19;3.80;99.90
38582;DHT22;24349;53.720;10.014;2022-12-07T14:28:45;3.80;99.90
38582;DHT22;24349;53.720;10.014;2022-12-07T14:31:12;3.70;99.90
38582;DHT22;24349;53.720;10.014;2022-12-07T14:33:39;3.70;99.90
38582;DHT22;24349;53.720;10.014;2022-12-07T14:36:04;3.60;99.90
38582;DHT22;24349;53.720;10.014;2022-12-07T14:38:30;3.60;99.90
38582;DHT22;24349;53.720;10.014;2022-12-07T14:40:55;3.60;99.90
38582;DHT22;24349;53.720;10.014;2022-12-07T14:43:44;3.50;99.90
38582;DHT22;24349;53.720;10.014;2022-12-07T14:46:10;3.50;99.90
38582;DHT22;24349;53.720;10.014;2022-12-07T14:48:35;3.40;99.90
38582;DHT22;24349;53.720;10.014;2022-12-07T14:51:01;3.40;99.90
38582;DHT22;24349;53.720;10.014;2022-12-07T14:53:29;3.30;99.90
38582;DHT22;24349;53.720;10.014;2022-12-07T14:55:55;3.20;99.90
38582;DHT22;24349;53.720;10.014;2022-12-07T14:58:20;3.20;99.90
38582;DHT22;24349;53.720;10.014;2022-12-07T15:00:46;3.20;99.90
38582;DHT22;24349;53.720;10.014;2022-12-07T15:03:12;3.10;99.90
38582;DHT22;24349;53.720;10.014;2022-12-07T15:05:38;3.10;99.90
38582;DHT22;24349;53.720;10.014;2022-12-07T15:08:04;3.10;99.90
38582;DHT22;24349;53.720;10.014;2022-12-07T15:10:31;3.00;99.90
38582;DHT22;24349;53.720;10.014;2022-12-07T15:12:58;2.90;99.90
38582;DHT22;24349;53.720;10.014;2022-12-07T15:15:43;2.90;99.90
38582;DHT22;24349;53.720;10.014;2022-12-07T15:18:09;2.80;99.90
38582;DHT22;24349;53.720;10.014;2022-12-07T15:20:34;2.80;99.90
38582;DHT22;24349;53.720;10.014;2022-12-07T15:23:00;2.70;99.90
38582;DHT22;24349;53.720;10.014;2022-12-07T15:25:25;2.60;99.90
38582;DHT22;24349;53.720;10.014;2022-12-07T15:27:51;2.60;99.90
38582;DHT22;24349;53.720;10.014;2022-12-07T15:30:16;2.50;99.90
38582;DHT22;24349;53.720;10.014;2022-12-07T15:32:42;2.50;99.90
38582;DHT22;24349;53.720;10.014;2022-12-07T15:35:07;2.50;99.90
38582;DHT22;24349;53.720;10.014;2022-12-07T15:37:33;2.50;99.90
38582;DHT22;24349;53.720;10.014;2022-12-07T15:39:58;2.40;99.90
38582;DHT22;24349;53.720;10.014;2022-12-07T15:42:24;2.30;99.90
38582;DHT22;24349;53.720;10.014;2022-12-07T15:44:49;2.30;99.90
38582;DHT22;24349;53.720;10.014;2022-12-07T15:47:31;2.20;99.90
38582;DHT22;24349;53.720;10.014;2022-12-07T15:49:56;2.20;99.90
38582;DHT22;24349;53.720;10.014;2022-12-07T15:52:22;2.20;99.90
38582;DHT22;24349;53.720;10.014;2022-12-07T15:54:48;2.10;99.90
38582;DHT22;24349;53.720;10.014;2022-12-07T15:57:14;2.10;99.90
38582;DHT22;24349;53.720;10.014;2022-12-07T15:59:39;2.10;99.90
38582;DHT22;24349;53.720;10.014;2022-12-07T16:02:05;2.00;99.90
38582;DHT22;24349;53.720;10.014;2022-12-07T16:04:30;2.00;99.90
38582;DHT22;24349;53.720;10.014;2022-12-07T16:06:56;1.90;99.90
38582;DHT22;24349;53.720;10.014;2022-12-07T16:09:22;1.90;99.90
38582;DHT22;24349;53.720;10.014;2022-12-07T16:11:47;1.80;99.90
38582;DHT22;24349;53.720;10.014;2022-12-07T16:14:15;1.80;99.90
38582;DHT22;24349;53.720;10.014;2022-12-07T16:16:40;1.80;99.90
38582;DHT22;24349;53.720;10.014;2022-12-07T16:19:07;1.80;99.90
38582;DHT22;24349;53.720;10.014;2022-12-07T16:21:33;1.80;99.90
38582;DHT22;24349;53.720;10.014;2022-12-07T16:23:58;1.80;99.90
38582;DHT22;24349;53.720;10.014;2022-12-07T16:26:24;1.80;99.90
38582;DHT22;24349;53.720;10.014;2022-12-07T16:28:50;1.70;99.90
38582;DHT22;24349;53.720;10.014;2022-12-07T16:31:17;1.70;99.90
38582;DHT22;24349;53.720;10.014;2022-12-07T16:33:43;1.70;99.90
38582;DHT22;24349;53.720;10.014;2022-12-07T16:36:09;1.60;99.90
38582;DHT22;24349;53.720;10.014;2022-12-07T16:38:35;1.60;99.90
38582;DHT22;24349;53.720;10.014;2022-12-07T16:41:01;1.60;99.90
38582;DHT22;24349;53.720;10.014;2022-12-07T16:43:26;1.60;99.90
38582;DHT22;24349;53.720;10.014;2022-12-07T16:45:52;1.60;99.90
38582;DHT22;24349;53.720;10.014;2022-12-07T16:48:18;1.50;99.90
38582;DHT22;24349;53.720;10.014;2022-12-07T16:50:43;1.60;99.90
38582;DHT22;24349;53.720;10.014;2022-12-07T16:53:10;1.60;99.90
38582;DHT22;24349;53.720;10.014;2022-12-07T16:55:39;1.70;99.90
38582;DHT22;24349;53.720;10.014;2022-12-07T16:58:05;1.70;99.90
38582;DHT22;24349;53.720;10.014;2022-12-07T17:00:31;1.70;99.90
38582;DHT22;24349;53.720;10.014;2022-12-07T17:02:56;1.70;99.90
38582;DHT22;24349;53.720;10.014;2022-12-07T17:05:22;1.70;99.90
38582;DHT22;24349;53.720;10.014;2022-12-07T17:07:48;1.70;99.90
38582;DHT22;24349;53.720;10.014;2022-12-07T17:10:14;1.80;99.90
38582;DHT22;24349;53.720;10.014;2022-12-07T17:12:39;1.80;99.90
38582;DHT22;24349;53.720;10.014;2022-12-07T17:15:05;1.80;99.90
38582;DHT22;24349;53.720;10.014;2022-12-07T17:17:44;1.80;99.90
38582;DHT22;24349;53.720;10.014;2022-12-07T17:20:10;1.80;99.90
38582;DHT22;24349;53.720;10.014;2022-12-07T17:22:36;1.80;99.90
38582;DHT22;24349;53.720;10.014;2022-12-07T17:25:02;1.80;99.90
38582;DHT22;24349;53.720;10.014;2022-12-07T17:27:27;1.80;99.90
38582;DHT22;24349;53.720;10.014;2022-12-07T17:29:53;1.70;99.90
38582;DHT22;24349;53.720;10.014;2022-12-07T17:32:18;1.80;99.90
38582;DHT22;24349;53.720;10.014;2022-12-07T17:34:44;1.80;99.90
38582;DHT22;24349;53.720;10.014;2022-12-07T17:37:09;1.80;99.90